University Oxford Airport
KUOX : rendu visible

Aérodrome :











RETROUVEZ-NOUS SUR...

 
LOGIN :

S'inscrire | Disclaimer

   EN    FR    IT 

 









Légende :    VFR   VFR Marginal   IFR   IFR Intensif   IFR Très Intensif
Visi : 
Plafond : 
>= 8 km
>= 3000ft
5 à 8 km
1000 à 3000 ft
1500m à 5 km
500 à 1000 ft
800 à 1500m
200 à 500 ft
< 800m
< 200 ft
Symboles :   Orages  Brouillard  Fortes neiges  Fortes précipitations  Vent > 20 kt






- Altitude de l'aérodrome : 452 ft


KUOX - University Oxford

DERNIER METAR :
  • 200435Z AUTO 00000KT 10SM CLR 04/02 A3007 RMK AO2

METARs EXPIRÉS :
  • 200415Z AUTO 00000KT 10SM CLR 04/02 A3006 RMK AO2
  • 200355Z AUTO 00000KT 10SM CLR 04/02 A3006 RMK AO2
  • 200335Z AUTO 00000KT 10SM CLR 04/02 A3006 RMK AO2
  • 200315Z AUTO 00000KT 10SM CLR 04/02 A3006 RMK AO2
  • 200255Z AUTO 00000KT 10SM CLR 05/03 A3005 RMK AO2
  • 200235Z AUTO 00000KT 10SM CLR 05/03 A3005 RMK AO2
  • 200215Z AUTO 00000KT 10SM CLR 05/03 A3005 RMK AO2
  • 200155Z AUTO 00000KT 10SM CLR 06/03 A3004 RMK AO2

TAF N/A



MET'MAP, la Météo Aéronautique d'un coup d'oeil ! - Copyright ORBIFLY Décembre 2007 - Disclaimer

ORBIFLY MET'MAP TEAM :

Programmation & Développement : Alexandra Zaïnal
Conception & Développement : Baudouin d'Aumeries
Co-Programmation & Développement : Marc-Olivier Méhu
Soutien technique & logistique : Manuel Goepfert

Contact : metmap@orbifly.com




SOURCES & CREDITS :

   NOAA       Earth
Advisory